sensor_id;sensor_type;location;lat;lon;timestamp;P1;durP1;ratioP1;P2;durP2;ratioP2
43807;SDS011;29438;50.664;10.098;2023-04-01T00:02:05;3.13;;;0.47;;
43807;SDS011;29438;50.664;10.098;2023-04-01T00:04:31;4.20;;;0.65;;
43807;SDS011;29438;50.664;10.098;2023-04-01T00:06:57;2.20;;;0.68;;
43807;SDS011;29438;50.664;10.098;2023-04-01T00:09:22;3.60;;;0.50;;
43807;SDS011;29438;50.664;10.098;2023-04-01T00:11:48;1.77;;;0.45;;
43807;SDS011;29438;50.664;10.098;2023-04-01T00:14:14;2.90;;;0.50;;
43807;SDS011;29438;50.664;10.098;2023-04-01T00:16:39;3.70;;;0.50;;
43807;SDS011;29438;50.664;10.098;2023-04-01T00:19:05;2.35;;;0.70;;
43807;SDS011;29438;50.664;10.098;2023-04-01T00:21:31;2.88;;;0.50;;
43807;SDS011;29438;50.664;10.098;2023-04-01T00:23:56;3.13;;;0.65;;
43807;SDS011;29438;50.664;10.098;2023-04-01T00:26:22;2.60;;;0.75;;
43807;SDS011;29438;50.664;10.098;2023-04-01T00:28:49;1.77;;;0.57;;
43807;SDS011;29438;50.664;10.098;2023-04-01T00:31:15;2.08;;;0.65;;
43807;SDS011;29438;50.664;10.098;2023-04-01T00:33:40;2.17;;;0.57;;
43807;SDS011;29438;50.664;10.098;2023-04-01T00:38:35;4.00;;;0.70;;
43807;SDS011;29438;50.664;10.098;2023-04-01T00:41:02;4.80;;;0.90;;
43807;SDS011;29438;50.664;10.098;2023-04-01T00:43:28;4.72;;;0.80;;
43807;SDS011;29438;50.664;10.098;2023-04-01T00:45:55;5.03;;;0.80;;
43807;SDS011;29438;50.664;10.098;2023-04-01T00:48:24;3.22;;;0.70;;
43807;SDS011;29438;50.664;10.098;2023-04-01T00:50:55;2.03;;;0.60;;
43807;SDS011;29438;50.664;10.098;2023-04-01T00:53:21;5.75;;;0.70;;
43807;SDS011;29438;50.664;10.098;2023-04-01T00:55:53;3.08;;;0.68;;
43807;SDS011;29438;50.664;10.098;2023-04-01T00:58:23;3.70;;;0.70;;
43807;SDS011;29438;50.664;10.098;2023-04-01T01:00:50;3.53;;;0.90;;
43807;SDS011;29438;50.664;10.098;2023-04-01T01:03:17;5.28;;;0.50;;
43807;SDS011;29438;50.664;10.098;2023-04-01T01:08:14;3.88;;;0.70;;
43807;SDS011;29438;50.664;10.098;2023-04-01T01:10:48;4.15;;;0.80;;
43807;SDS011;29438;50.664;10.098;2023-04-01T01:13:22;6.35;;;0.80;;
43807;SDS011;29438;50.664;10.098;2023-04-01T01:16:00;3.97;;;0.45;;
43807;SDS011;29438;50.664;10.098;2023-04-01T01:18:35;5.38;;;0.80;;
43807;SDS011;29438;50.664;10.098;2023-04-01T01:21:25;2.65;;;0.73;;
43807;SDS011;29438;50.664;10.098;2023-04-01T01:24:36;2.38;;;0.70;;
43807;SDS011;29438;50.664;10.098;2023-04-01T01:27:11;4.20;;;0.50;;
43807;SDS011;29438;50.664;10.098;2023-04-01T01:33:05;3.92;;;0.82;;
43807;SDS011;29438;50.664;10.098;2023-04-01T01:35:48;3.40;;;0.93;;
43807;SDS011;29438;50.664;10.098;2023-04-01T01:38:18;5.18;;;0.60;;
43807;SDS011;29438;50.664;10.098;2023-04-01T01:40:48;4.25;;;0.70;;
43807;SDS011;29438;50.664;10.098;2023-04-01T01:43:19;2.95;;;0.60;;
43807;SDS011;29438;50.664;10.098;2023-04-01T01:45:49;3.63;;;0.60;;
43807;SDS011;29438;50.664;10.098;2023-04-01T01:48:19;2.85;;;0.40;;
43807;SDS011;29438;50.664;10.098;2023-04-01T01:50:45;2.80;;;0.82;;
43807;SDS011;29438;50.664;10.098;2023-04-01T01:53:13;3.00;;;0.50;;
43807;SDS011;29438;50.664;10.098;2023-04-01T01:55:40;3.25;;;0.50;;
43807;SDS011;29438;50.664;10.098;2023-04-01T02:01:05;2.85;;;0.50;;
43807;SDS011;29438;50.664;10.098;2023-04-01T02:03:34;1.88;;;0.52;;
43807;SDS011;29438;50.664;10.098;2023-04-01T02:06:02;1.83;;;0.50;;
43807;SDS011;29438;50.664;10.098;2023-04-01T02:08:34;3.92;;;0.75;;
43807;SDS011;29438;50.664;10.098;2023-04-01T02:19:16;2.95;;;0.50;;
43807;SDS011;29438;50.664;10.098;2023-04-01T02:21:47;4.53;;;0.55;;
43807;SDS011;29438;50.664;10.098;2023-04-01T02:24:20;3.97;;;0.60;;
43807;SDS011;29438;50.664;10.098;2023-04-01T02:26:49;3.17;;;0.60;;
43807;SDS011;29438;50.664;10.098;2023-04-01T02:29:16;1.80;;;0.60;;
43807;SDS011;29438;50.664;10.098;2023-04-01T02:31:48;1.80;;;0.30;;
43807;SDS011;29438;50.664;10.098;2023-04-01T02:34:14;4.13;;;0.50;;
43807;SDS011;29438;50.664;10.098;2023-04-01T02:36:40;2.97;;;0.50;;
43807;SDS011;29438;50.664;10.098;2023-04-01T02:39:07;2.15;;;0.40;;
43807;SDS011;29438;50.664;10.098;2023-04-01T02:41:38;2.80;;;0.52;;
43807;SDS011;29438;50.664;10.098;2023-04-01T02:44:05;2.63;;;0.60;;
43807;SDS011;29438;50.664;10.098;2023-04-01T02:46:32;3.38;;;0.32;;
43807;SDS011;29438;50.664;10.098;2023-04-01T02:48:57;2.80;;;0.30;;
43807;SDS011;29438;50.664;10.098;2023-04-01T02:51:23;3.65;;;0.50;;
43807;SDS011;29438;50.664;10.098;2023-04-01T02:53:50;3.33;;;0.30;;
43807;SDS011;29438;50.664;10.098;2023-04-01T02:56:15;2.60;;;0.45;;
43807;SDS011;29438;50.664;10.098;2023-04-01T02:58:41;1.77;;;0.30;;
43807;SDS011;29438;50.664;10.098;2023-04-01T03:01:06;3.42;;;0.40;;
43807;SDS011;29438;50.664;10.098;2023-04-01T03:03:33;2.42;;;0.50;;
43807;SDS011;29438;50.664;10.098;2023-04-01T03:06:01;2.53;;;0.30;;
43807;SDS011;29438;50.664;10.098;2023-04-01T03:08:30;1.35;;;0.28;;
43807;SDS011;29438;50.664;10.098;2023-04-01T03:10:56;2.78;;;0.50;;
43807;SDS011;29438;50.664;10.098;2023-04-01T03:13:21;1.60;;;0.40;;
43807;SDS011;29438;50.664;10.098;2023-04-01T03:15:47;2.08;;;0.40;;
43807;SDS011;29438;50.664;10.098;2023-04-01T03:18:13;1.60;;;0.40;;
43807;SDS011;29438;50.664;10.098;2023-04-01T03:20:38;1.42;;;0.30;;
43807;SDS011;29438;50.664;10.098;2023-04-01T03:23:04;2.17;;;0.40;;
43807;SDS011;29438;50.664;10.098;2023-04-01T03:25:29;5.65;;;0.55;;
43807;SDS011;29438;50.664;10.098;2023-04-01T03:27:55;1.33;;;0.25;;
43807;SDS011;29438;50.664;10.098;2023-04-01T03:30:21;1.25;;;0.30;;
43807;SDS011;29438;50.664;10.098;2023-04-01T03:32:46;1.80;;;0.40;;
43807;SDS011;29438;50.664;10.098;2023-04-01T03:35:12;2.58;;;0.30;;
43807;SDS011;29438;50.664;10.098;2023-04-01T03:37:37;1.80;;;0.40;;
43807;SDS011;29438;50.664;10.098;2023-04-01T03:40:03;3.72;;;0.40;;
43807;SDS011;29438;50.664;10.098;2023-04-01T03:42:29;1.90;;;0.50;;
43807;SDS011;29438;50.664;10.098;2023-04-01T03:44:57;2.42;;;0.60;;
43807;SDS011;29438;50.664;10.098;2023-04-01T03:47:22;2.42;;;0.52;;
43807;SDS011;29438;50.664;10.098;2023-04-01T03:49:48;2.78;;;0.40;;
43807;SDS011;29438;50.664;10.098;2023-04-01T03:52:13;2.67;;;0.40;;
43807;SDS011;29438;50.664;10.098;2023-04-01T03:54:39;2.58;;;0.57;;
43807;SDS011;29438;50.664;10.098;2023-04-01T03:57:05;1.10;;;0.30;;
43807;SDS011;29438;50.664;10.098;2023-04-01T03:59:30;1.88;;;0.40;;
43807;SDS011;29438;50.664;10.098;2023-04-01T04:01:56;1.95;;;0.20;;
43807;SDS011;29438;50.664;10.098;2023-04-01T04:04:21;2.05;;;0.20;;
43807;SDS011;29438;50.664;10.098;2023-04-01T04:06:47;1.45;;;0.30;;
43807;SDS011;29438;50.664;10.098;2023-04-01T04:09:13;1.85;;;0.20;;
43807;SDS011;29438;50.664;10.098;2023-04-01T04:11:38;2.30;;;0.20;;
43807;SDS011;29438;50.664;10.098;2023-04-01T04:14:04;2.15;;;0.20;;
43807;SDS011;29438;50.664;10.098;2023-04-01T04:16:30;2.30;;;0.30;;
43807;SDS011;29438;50.664;10.098;2023-04-01T04:18:55;1.00;;;0.10;;
43807;SDS011;29438;50.664;10.098;2023-04-01T04:21:21;2.58;;;0.47;;
43807;SDS011;29438;50.664;10.098;2023-04-01T04:23:46;3.08;;;0.20;;
43807;SDS011;29438;50.664;10.098;2023-04-01T04:26:13;2.70;;;0.20;;
43807;SDS011;29438;50.664;10.098;2023-04-01T04:28:39;2.47;;;0.20;;
43807;SDS011;29438;50.664;10.098;2023-04-01T04:31:05;2.50;;;0.20;;
43807;SDS011;29438;50.664;10.098;2023-04-01T04:33:31;1.30;;;0.20;;
43807;SDS011;29438;50.664;10.098;2023-04-01T04:35:58;1.23;;;0.20;;
43807;SDS011;29438;50.664;10.098;2023-04-01T04:38:24;2.80;;;0.28;;
43807;SDS011;29438;50.664;10.098;2023-04-01T04:40:50;2.92;;;0.25;;
43807;SDS011;29438;50.664;10.098;2023-04-01T04:43:16;2.40;;;0.20;;
43807;SDS011;29438;50.664;10.098;2023-04-01T04:45:43;2.53;;;0.30;;
43807;SDS011;29438;50.664;10.098;2023-04-01T04:48:10;2.42;;;0.20;;
43807;SDS011;29438;50.664;10.098;2023-04-01T04:50:44;0.88;;;0.17;;
43807;SDS011;29438;50.664;10.098;2023-04-01T04:53:11;1.75;;;0.30;;
43807;SDS011;29438;50.664;10.098;2023-04-01T04:55:37;2.85;;;0.50;;
43807;SDS011;29438;50.664;10.098;2023-04-01T04:58:07;2.90;;;0.20;;
43807;SDS011;29438;50.664;10.098;2023-04-01T05:00:32;1.23;;;0.20;;
43807;SDS011;29438;50.664;10.098;2023-04-01T05:02:58;1.50;;;0.20;;
43807;SDS011;29438;50.664;10.098;2023-04-01T05:05:23;1.05;;;0.20;;
43807;SDS011;29438;50.664;10.098;2023-04-01T05:07:48;0.80;;;0.13;;
43807;SDS011;29438;50.664;10.098;2023-04-01T05:10:14;1.83;;;0.35;;
43807;SDS011;29438;50.664;10.098;2023-04-01T05:12:40;1.25;;;0.40;;
43807;SDS011;29438;50.664;10.098;2023-04-01T05:15:05;1.40;;;0.30;;
43807;SDS011;29438;50.664;10.098;2023-04-01T05:17:31;2.55;;;0.20;;
43807;SDS011;29438;50.664;10.098;2023-04-01T05:19:57;1.80;;;0.30;;
43807;SDS011;29438;50.664;10.098;2023-04-01T05:22:23;1.00;;;0.20;;
43807;SDS011;29438;50.664;10.098;2023-04-01T05:24:49;0.95;;;0.35;;
43807;SDS011;29438;50.664;10.098;2023-04-01T05:27:14;0.85;;;0.20;;
43807;SDS011;29438;50.664;10.098;2023-04-01T05:29:40;2.08;;;0.30;;
43807;SDS011;29438;50.664;10.098;2023-04-01T05:32:06;2.90;;;0.45;;
43807;SDS011;29438;50.664;10.098;2023-04-01T05:34:31;1.27;;;0.20;;
43807;SDS011;29438;50.664;10.098;2023-04-01T05:36:57;2.03;;;0.13;;
43807;SDS011;29438;50.664;10.098;2023-04-01T05:39:22;2.33;;;0.25;;
43807;SDS011;29438;50.664;10.098;2023-04-01T05:41:48;2.50;;;0.30;;
43807;SDS011;29438;50.664;10.098;2023-04-01T05:44:14;0.75;;;0.20;;
43807;SDS011;29438;50.664;10.098;2023-04-01T05:46:39;1.45;;;0.47;;
43807;SDS011;29438;50.664;10.098;2023-04-01T05:49:05;2.20;;;0.20;;
43807;SDS011;29438;50.664;10.098;2023-04-01T05:51:31;0.95;;;0.10;;
43807;SDS011;29438;50.664;10.098;2023-04-01T05:53:56;1.50;;;0.32;;
43807;SDS011;29438;50.664;10.098;2023-04-01T05:56:22;1.42;;;0.20;;
43807;SDS011;29438;50.664;10.098;2023-04-01T05:58:50;1.52;;;0.40;;
43807;SDS011;29438;50.664;10.098;2023-04-01T06:01:18;2.17;;;0.30;;
43807;SDS011;29438;50.664;10.098;2023-04-01T06:03:44;4.45;;;0.30;;
43807;SDS011;29438;50.664;10.098;2023-04-01T06:06:14;1.33;;;0.25;;
43807;SDS011;29438;50.664;10.098;2023-04-01T06:08:41;2.90;;;0.47;;
43807;SDS011;29438;50.664;10.098;2023-04-01T06:14:02;1.63;;;0.20;;
43807;SDS011;29438;50.664;10.098;2023-04-01T06:22:08;2.88;;;0.40;;
43807;SDS011;29438;50.664;10.098;2023-04-01T06:24:50;1.02;;;0.20;;
43807;SDS011;29438;50.664;10.098;2023-04-01T06:39:03;2.40;;;0.52;;
43807;SDS011;29438;50.664;10.098;2023-04-01T06:41:57;2.03;;;0.22;;
43807;SDS011;29438;50.664;10.098;2023-04-01T06:50:13;1.27;;;0.13;;
43807;SDS011;29438;50.664;10.098;2023-04-01T06:53:04;0.93;;;0.30;;
43807;SDS011;29438;50.664;10.098;2023-04-01T06:55:51;0.85;;;0.10;;
43807;SDS011;29438;50.664;10.098;2023-04-01T07:00:50;0.45;;;0.10;;
43807;SDS011;29438;50.664;10.098;2023-04-01T07:06:09;0.95;;;0.10;;
43807;SDS011;29438;50.664;10.098;2023-04-01T07:09:03;1.17;;;0.10;;
43807;SDS011;29438;50.664;10.098;2023-04-01T07:11:32;0.70;;;0.17;;
43807;SDS011;29438;50.664;10.098;2023-04-01T07:14:00;1.83;;;0.30;;
43807;SDS011;29438;50.664;10.098;2023-04-01T07:16:38;1.52;;;0.20;;
43807;SDS011;29438;50.664;10.098;2023-04-01T07:19:11;1.10;;;0.10;;
43807;SDS011;29438;50.664;10.098;2023-04-01T07:21:42;4.63;;;0.30;;
43807;SDS011;29438;50.664;10.098;2023-04-01T07:24:55;3.65;;;0.30;;
43807;SDS011;29438;50.664;10.098;2023-04-01T07:27:05;1.77;;;0.20;;
43807;SDS011;29438;50.664;10.098;2023-04-01T07:29:34;0.50;;;0.10;;
43807;SDS011;29438;50.664;10.098;2023-04-01T07:37:37;2.67;;;0.17;;
43807;SDS011;29438;50.664;10.098;2023-04-01T07:43:14;0.82;;;0.10;;
43807;SDS011;29438;50.664;10.098;2023-04-01T07:45:45;1.60;;;0.10;;
43807;SDS011;29438;50.664;10.098;2023-04-01T07:48:26;1.02;;;0.10;;
43807;SDS011;29438;50.664;10.098;2023-04-01T07:50:59;0.75;;;0.20;;
43807;SDS011;29438;50.664;10.098;2023-04-01T07:53:31;1.63;;;0.22;;
43807;SDS011;29438;50.664;10.098;2023-04-01T08:06:47;1.85;;;0.10;;
43807;SDS011;29438;50.664;10.098;2023-04-01T08:10:08;1.25;;;0.00;;
43807;SDS011;29438;50.664;10.098;2023-04-01T08:23:22;1.00;;;0.22;;
43807;SDS011;29438;50.664;10.098;2023-04-01T08:28:32;2.13;;;0.20;;
43807;SDS011;29438;50.664;10.098;2023-04-01T08:31:05;0.90;;;0.10;;
43807;SDS011;29438;50.664;10.098;2023-04-01T08:33:49;0.73;;;0.20;;
43807;SDS011;29438;50.664;10.098;2023-04-01T08:36:20;1.77;;;0.25;;
43807;SDS011;29438;50.664;10.098;2023-04-01T08:41:37;2.47;;;0.90;;
43807;SDS011;29438;50.664;10.098;2023-04-01T08:44:19;1.92;;;0.90;;
43807;SDS011;29438;50.664;10.098;2023-04-01T08:46:56;1.35;;;0.50;;
43807;SDS011;29438;50.664;10.098;2023-04-01T08:52:41;1.70;;;0.60;;
43807;SDS011;29438;50.664;10.098;2023-04-01T08:55:35;1.75;;;0.88;;
43807;SDS011;29438;50.664;10.098;2023-04-01T09:01:08;0.90;;;0.30;;
43807;SDS011;29438;50.664;10.098;2023-04-01T09:12:51;2.30;;;0.90;;
43807;SDS011;29438;50.664;10.098;2023-04-01T09:15:37;8.52;;;3.60;;
43807;SDS011;29438;50.664;10.098;2023-04-01T09:21:24;0.20;;;0.00;;
43807;SDS011;29438;50.664;10.098;2023-04-01T09:27:01;1.27;;;0.10;;
43807;SDS011;29438;50.664;10.098;2023-04-01T09:29:59;0.52;;;0.10;;
43807;SDS011;29438;50.664;10.098;2023-04-01T09:41:36;1.10;;;0.43;;
43807;SDS011;29438;50.664;10.098;2023-04-01T09:44:18;0.77;;;0.10;;
43807;SDS011;29438;50.664;10.098;2023-04-01T09:49:48;2.53;;;0.10;;
43807;SDS011;29438;50.664;10.098;2023-04-01T09:52:33;1.10;;;0.30;;
43807;SDS011;29438;50.664;10.098;2023-04-01T10:07:50;1.58;;;0.10;;
43807;SDS011;29438;50.664;10.098;2023-04-01T10:10:20;0.45;;;0.08;;
43807;SDS011;29438;50.664;10.098;2023-04-01T10:15:54;0.68;;;0.20;;
43807;SDS011;29438;50.664;10.098;2023-04-01T10:18:47;0.85;;;0.10;;
43807;SDS011;29438;50.664;10.098;2023-04-01T10:24:31;0.50;;;0.00;;
43807;SDS011;29438;50.664;10.098;2023-04-01T10:27:06;0.25;;;0.00;;
43807;SDS011;29438;50.664;10.098;2023-04-01T10:29:49;0.57;;;0.10;;
43807;SDS011;29438;50.664;10.098;2023-04-01T10:35:41;2.38;;;0.30;;
43807;SDS011;29438;50.664;10.098;2023-04-01T10:57:23;2.95;;;0.38;;
43807;SDS011;29438;50.664;10.098;2023-04-01T11:08:29;1.23;;;0.28;;
43807;SDS011;29438;50.664;10.098;2023-04-01T11:20:06;0.70;;;0.30;;
43807;SDS011;29438;50.664;10.098;2023-04-01T11:26:30;1.20;;;0.10;;
43807;SDS011;29438;50.664;10.098;2023-04-01T11:34:18;0.40;;;0.10;;
43807;SDS011;29438;50.664;10.098;2023-04-01T11:40:06;0.65;;;0.10;;
43807;SDS011;29438;50.664;10.098;2023-04-01T11:51:50;1.65;;;0.10;;
43807;SDS011;29438;50.664;10.098;2023-04-01T11:54:24;0.57;;;0.10;;
43807;SDS011;29438;50.664;10.098;2023-04-01T12:00:12;0.63;;;0.00;;
43807;SDS011;29438;50.664;10.098;2023-04-01T12:03:10;0.30;;;0.10;;
43807;SDS011;29438;50.664;10.098;2023-04-01T12:09:02;0.80;;;0.30;;
43807;SDS011;29438;50.664;10.098;2023-04-01T12:11:38;0.32;;;0.10;;
43807;SDS011;29438;50.664;10.098;2023-04-01T12:17:14;0.45;;;0.00;;
43807;SDS011;29438;50.664;10.098;2023-04-01T12:34:19;0.30;;;0.00;;
43807;SDS011;29438;50.664;10.098;2023-04-01T12:42:55;0.20;;;0.00;;
43807;SDS011;29438;50.664;10.098;2023-04-01T12:47:59;0.27;;;0.07;;
43807;SDS011;29438;50.664;10.098;2023-04-01T12:56:09;0.52;;;0.08;;
43807;SDS011;29438;50.664;10.098;2023-04-01T12:59:16;0.10;;;0.00;;
43807;SDS011;29438;50.664;10.098;2023-04-01T13:01:52;1.17;;;0.00;;
43807;SDS011;29438;50.664;10.098;2023-04-01T13:04:35;0.10;;;0.00;;
43807;SDS011;29438;50.664;10.098;2023-04-01T13:09:57;0.20;;;0.00;;
43807;SDS011;29438;50.664;10.098;2023-04-01T13:12:49;0.10;;;0.00;;
43807;SDS011;29438;50.664;10.098;2023-04-01T13:15:46;0.13;;;0.00;;
43807;SDS011;29438;50.664;10.098;2023-04-01T13:18:37;0.20;;;0.00;;
43807;SDS011;29438;50.664;10.098;2023-04-01T13:21:40;0.20;;;0.03;;
43807;SDS011;29438;50.664;10.098;2023-04-01T13:29:33;0.80;;;0.10;;
43807;SDS011;29438;50.664;10.098;2023-04-01T13:32:35;0.60;;;0.10;;
43807;SDS011;29438;50.664;10.098;2023-04-01T13:35:14;1.00;;;0.10;;
43807;SDS011;29438;50.664;10.098;2023-04-01T13:40:47;0.70;;;0.13;;
43807;SDS011;29438;50.664;10.098;2023-04-01T13:43:36;1.10;;;0.20;;
43807;SDS011;29438;50.664;10.098;2023-04-01T13:46:10;0.68;;;0.25;;
43807;SDS011;29438;50.664;10.098;2023-04-01T13:54:31;0.15;;;0.00;;
43807;SDS011;29438;50.664;10.098;2023-04-01T14:05:31;1.48;;;0.10;;
43807;SDS011;29438;50.664;10.098;2023-04-01T14:08:23;0.68;;;0.20;;
43807;SDS011;29438;50.664;10.098;2023-04-01T14:10:59;0.68;;;0.20;;
43807;SDS011;29438;50.664;10.098;2023-04-01T14:24:57;4.97;;;1.65;;
43807;SDS011;29438;50.664;10.098;2023-04-01T14:44:17;2.25;;;0.20;;
43807;SDS011;29438;50.664;10.098;2023-04-01T14:47:08;1.25;;;0.43;;
43807;SDS011;29438;50.664;10.098;2023-04-01T14:50:14;1.10;;;0.28;;
43807;SDS011;29438;50.664;10.098;2023-04-01T14:58:21;0.75;;;0.17;;
43807;SDS011;29438;50.664;10.098;2023-04-01T15:07:03;2.15;;;0.75;;
43807;SDS011;29438;50.664;10.098;2023-04-01T15:09:48;0.70;;;0.10;;
43807;SDS011;29438;50.664;10.098;2023-04-01T15:12:46;1.35;;;0.45;;
43807;SDS011;29438;50.664;10.098;2023-04-01T15:15:36;2.97;;;2.03;;
43807;SDS011;29438;50.664;10.098;2023-04-01T15:18:07;2.97;;;1.00;;
43807;SDS011;29438;50.664;10.098;2023-04-01T15:21:06;2.80;;;0.85;;
43807;SDS011;29438;50.664;10.098;2023-04-01T15:29:05;3.58;;;1.50;;
43807;SDS011;29438;50.664;10.098;2023-04-01T15:31:54;3.58;;;0.90;;
43807;SDS011;29438;50.664;10.098;2023-04-01T15:40:03;1.50;;;0.40;;
43807;SDS011;29438;50.664;10.098;2023-04-01T15:45:46;3.28;;;1.20;;
43807;SDS011;29438;50.664;10.098;2023-04-01T15:48:31;2.50;;;0.70;;
43807;SDS011;29438;50.664;10.098;2023-04-01T15:51:36;2.80;;;1.10;;
43807;SDS011;29438;50.664;10.098;2023-04-01T16:11:09;2.50;;;0.98;;
43807;SDS011;29438;50.664;10.098;2023-04-01T16:17:00;2.85;;;0.93;;
43807;SDS011;29438;50.664;10.098;2023-04-01T16:19:37;3.10;;;1.33;;
43807;SDS011;29438;50.664;10.098;2023-04-01T16:22:19;3.08;;;1.00;;
43807;SDS011;29438;50.664;10.098;2023-04-01T16:31:09;6.15;;;2.40;;
43807;SDS011;29438;50.664;10.098;2023-04-01T16:42:17;2.67;;;1.20;;
43807;SDS011;29438;50.664;10.098;2023-04-01T16:47:32;3.55;;;1.70;;
43807;SDS011;29438;50.664;10.098;2023-04-01T16:50:24;4.22;;;1.80;;
43807;SDS011;29438;50.664;10.098;2023-04-01T16:55:53;9.38;;;4.00;;
43807;SDS011;29438;50.664;10.098;2023-04-01T16:58:34;2.58;;;0.90;;
43807;SDS011;29438;50.664;10.098;2023-04-01T17:01:11;5.90;;;2.80;;
43807;SDS011;29438;50.664;10.098;2023-04-01T17:03:45;4.65;;;2.10;;
43807;SDS011;29438;50.664;10.098;2023-04-01T17:06:13;10.73;;;4.10;;
43807;SDS011;29438;50.664;10.098;2023-04-01T17:11:37;2.33;;;0.88;;
43807;SDS011;29438;50.664;10.098;2023-04-01T17:14:24;2.05;;;0.70;;
43807;SDS011;29438;50.664;10.098;2023-04-01T17:20:12;5.38;;;2.22;;
43807;SDS011;29438;50.664;10.098;2023-04-01T17:25:45;3.30;;;1.40;;
43807;SDS011;29438;50.664;10.098;2023-04-01T17:28:42;2.80;;;1.20;;
43807;SDS011;29438;50.664;10.098;2023-04-01T17:36:26;4.55;;;1.90;;
43807;SDS011;29438;50.664;10.098;2023-04-01T17:42:10;8.55;;;2.38;;
43807;SDS011;29438;50.664;10.098;2023-04-01T17:50:28;5.85;;;2.75;;
43807;SDS011;29438;50.664;10.098;2023-04-01T17:58:18;4.85;;;1.15;;
43807;SDS011;29438;50.664;10.098;2023-04-01T18:03:44;1.65;;;0.55;;
43807;SDS011;29438;50.664;10.098;2023-04-01T18:09:05;1.10;;;0.25;;
43807;SDS011;29438;50.664;10.098;2023-04-01T18:12:09;1.90;;;0.55;;
43807;SDS011;29438;50.664;10.098;2023-04-01T18:26:22;1.95;;;0.80;;
43807;SDS011;29438;50.664;10.098;2023-04-01T18:28:59;2.08;;;0.80;;
43807;SDS011;29438;50.664;10.098;2023-04-01T18:37:32;2.20;;;0.80;;
43807;SDS011;29438;50.664;10.098;2023-04-01T18:40:11;1.75;;;0.70;;
43807;SDS011;29438;50.664;10.098;2023-04-01T18:42:50;1.35;;;0.77;;
43807;SDS011;29438;50.664;10.098;2023-04-01T18:45:27;1.65;;;0.90;;
43807;SDS011;29438;50.664;10.098;2023-04-01T18:48:08;1.00;;;0.40;;
43807;SDS011;29438;50.664;10.098;2023-04-01T18:50:41;1.83;;;0.77;;
43807;SDS011;29438;50.664;10.098;2023-04-01T18:53:14;1.73;;;0.47;;
43807;SDS011;29438;50.664;10.098;2023-04-01T18:56:01;1.38;;;0.68;;
43807;SDS011;29438;50.664;10.098;2023-04-01T18:58:46;3.22;;;1.30;;
43807;SDS011;29438;50.664;10.098;2023-04-01T19:01:43;4.20;;;1.60;;
43807;SDS011;29438;50.664;10.098;2023-04-01T19:06:46;2.22;;;0.70;;
43807;SDS011;29438;50.664;10.098;2023-04-01T19:17:22;3.35;;;1.10;;
43807;SDS011;29438;50.664;10.098;2023-04-01T19:23:31;3.40;;;1.58;;
43807;SDS011;29438;50.664;10.098;2023-04-01T19:25:53;3.70;;;1.75;;
43807;SDS011;29438;50.664;10.098;2023-04-01T19:31:12;2.35;;;1.17;;
43807;SDS011;29438;50.664;10.098;2023-04-01T19:33:49;3.90;;;2.20;;
43807;SDS011;29438;50.664;10.098;2023-04-01T19:39:33;4.35;;;2.38;;
43807;SDS011;29438;50.664;10.098;2023-04-01T19:42:18;3.95;;;2.20;;
43807;SDS011;29438;50.664;10.098;2023-04-01T19:50:34;3.67;;;1.90;;
43807;SDS011;29438;50.664;10.098;2023-04-01T19:53:11;4.22;;;2.10;;
43807;SDS011;29438;50.664;10.098;2023-04-01T19:56:12;4.10;;;2.08;;
43807;SDS011;29438;50.664;10.098;2023-04-01T20:01:11;3.38;;;1.80;;
43807;SDS011;29438;50.664;10.098;2023-04-01T20:03:55;4.30;;;1.80;;
43807;SDS011;29438;50.664;10.098;2023-04-01T20:15:33;3.03;;;1.70;;
43807;SDS011;29438;50.664;10.098;2023-04-01T20:18:05;2.95;;;1.55;;
43807;SDS011;29438;50.664;10.098;2023-04-01T20:20:40;2.72;;;1.58;;
43807;SDS011;29438;50.664;10.098;2023-04-01T20:25:53;2.22;;;1.00;;
43807;SDS011;29438;50.664;10.098;2023-04-01T20:28:32;2.75;;;1.20;;
43807;SDS011;29438;50.664;10.098;2023-04-01T20:31:18;2.85;;;1.42;;
43807;SDS011;29438;50.664;10.098;2023-04-01T20:42:33;2.35;;;0.85;;
43807;SDS011;29438;50.664;10.098;2023-04-01T20:47:41;1.70;;;0.90;;
43807;SDS011;29438;50.664;10.098;2023-04-01T20:50:31;3.70;;;1.85;;
43807;SDS011;29438;50.664;10.098;2023-04-01T20:53:15;2.75;;;1.27;;
43807;SDS011;29438;50.664;10.098;2023-04-01T21:06:31;4.75;;;2.40;;
43807;SDS011;29438;50.664;10.098;2023-04-01T21:09:18;3.72;;;2.00;;
43807;SDS011;29438;50.664;10.098;2023-04-01T21:12:11;5.15;;;2.85;;
43807;SDS011;29438;50.664;10.098;2023-04-01T21:22:54;4.05;;;2.38;;
43807;SDS011;29438;50.664;10.098;2023-04-01T21:25:35;3.55;;;1.90;;
43807;SDS011;29438;50.664;10.098;2023-04-01T21:28:23;4.47;;;2.30;;
43807;SDS011;29438;50.664;10.098;2023-04-01T21:31:14;3.83;;;1.80;;
43807;SDS011;29438;50.664;10.098;2023-04-01T21:34:13;2.33;;;1.17;;
43807;SDS011;29438;50.664;10.098;2023-04-01T21:45:37;3.72;;;1.70;;
43807;SDS011;29438;50.664;10.098;2023-04-01T21:54:08;1.90;;;0.60;;
43807;SDS011;29438;50.664;10.098;2023-04-01T22:11:41;2.28;;;1.00;;
43807;SDS011;29438;50.664;10.098;2023-04-01T22:14:40;1.95;;;0.95;;
43807;SDS011;29438;50.664;10.098;2023-04-01T22:17:10;2.17;;;0.85;;
43807;SDS011;29438;50.664;10.098;2023-04-01T22:20:04;2.28;;;0.80;;
43807;SDS011;29438;50.664;10.098;2023-04-01T22:28:16;2.75;;;1.10;;
43807;SDS011;29438;50.664;10.098;2023-04-01T22:30:47;3.00;;;1.20;;
43807;SDS011;29438;50.664;10.098;2023-04-01T22:33:19;3.40;;;1.20;;
43807;SDS011;29438;50.664;10.098;2023-04-01T22:41:56;2.35;;;1.10;;
43807;SDS011;29438;50.664;10.098;2023-04-01T22:53:27;2.22;;;0.80;;
43807;SDS011;29438;50.664;10.098;2023-04-01T22:55:59;2.50;;;0.80;;
43807;SDS011;29438;50.664;10.098;2023-04-01T22:58:35;3.70;;;1.35;;
43807;SDS011;29438;50.664;10.098;2023-04-01T23:01:10;2.47;;;1.00;;
43807;SDS011;29438;50.664;10.098;2023-04-01T23:03:41;2.88;;;1.30;;
43807;SDS011;29438;50.664;10.098;2023-04-01T23:06:12;3.55;;;1.55;;
43807;SDS011;29438;50.664;10.098;2023-04-01T23:08:48;4.55;;;1.60;;
43807;SDS011;29438;50.664;10.098;2023-04-01T23:11:26;3.95;;;1.50;;
43807;SDS011;29438;50.664;10.098;2023-04-01T23:17:34;4.65;;;1.67;;
43807;SDS011;29438;50.664;10.098;2023-04-01T23:20:00;4.32;;;1.63;;
43807;SDS011;29438;50.664;10.098;2023-04-01T23:25:27;4.07;;;1.75;;
43807;SDS011;29438;50.664;10.098;2023-04-01T23:28:17;4.65;;;1.65;;
43807;SDS011;29438;50.664;10.098;2023-04-01T23:33:20;4.78;;;1.90;;
43807;SDS011;29438;50.664;10.098;2023-04-01T23:35:56;5.57;;;2.30;;
43807;SDS011;29438;50.664;10.098;2023-04-01T23:38:31;5.85;;;2.30;;
43807;SDS011;29438;50.664;10.098;2023-04-01T23:41:06;4.40;;;1.80;;
43807;SDS011;29438;50.664;10.098;2023-04-01T23:43:42;5.38;;;2.40;;
43807;SDS011;29438;50.664;10.098;2023-04-01T23:46:10;4.82;;;2.45;;
43807;SDS011;29438;50.664;10.098;2023-04-01T23:48:39;7.55;;;3.00;;
43807;SDS011;29438;50.664;10.098;2023-04-01T23:53:42;5.78;;;2.85;;
43807;SDS011;29438;50.664;10.098;2023-04-01T23:56:10;6.75;;;2.88;;
